createdAt,value
2017-10-07T00:00:31.700Z,76.94
2017-10-07T00:01:41.719Z,77.42
2017-10-07T00:02:51.422Z,77.13
2017-10-07T00:04:01.773Z,76.94
2017-10-07T00:05:13.161Z,77.03
2017-10-07T00:06:23.493Z,77.03
2017-10-07T00:07:33.509Z,77.03
2017-10-07T00:08:43.843Z,77.32
2017-10-07T00:09:54.200Z,77.32
2017-10-07T00:11:03.911Z,76.94
2017-10-07T00:12:14.256Z,77.13
2017-10-07T00:13:24.281Z,76.84
2017-10-07T00:14:34.291Z,77.13
2017-10-07T00:15:44.004Z,77.03
2017-10-07T00:16:54.353Z,77.32
2017-10-07T00:18:04.705Z,76.94
2017-10-07T00:19:15.094Z,76.84
2017-10-07T00:20:25.531Z,77.03
2017-10-07T00:21:35.860Z,76.84
2017-10-07T00:22:45.877Z,77.32
2017-10-07T00:23:56.210Z,77.42
2017-10-07T00:25:06.591Z,77.13
2017-10-07T00:26:16.618Z,77.23
2017-10-07T00:27:26.994Z,77.13
2017-10-07T00:28:37.336Z,77.42
2017-10-07T00:29:47.684Z,77.42
2017-10-07T00:30:58.061Z,77.32
2017-10-07T00:32:08.403Z,77.13
2017-10-07T00:33:18.733Z,76.94
2017-10-07T00:34:29.078Z,77.03
2017-10-07T00:35:39.432Z,76.84
2017-10-07T00:36:49.829Z,76.84
2017-10-07T00:37:59.846Z,76.84
2017-10-07T00:39:10.506Z,77.42
2017-10-07T00:40:20.219Z,77.32
2017-10-07T00:41:30.555Z,77.13
2017-10-07T00:42:40.889Z,77.42
2017-10-07T00:43:51.267Z,77.23
2017-10-07T00:45:01.616Z,77.32
2017-10-07T00:46:11.956Z,77.51
2017-10-07T00:47:22.002Z,77.23
2017-10-07T00:48:32.407Z,77.23
2017-10-07T00:49:42.760Z,76.94
2017-10-07T00:50:53.136Z,77.17
2017-10-07T00:52:03.162Z,77.08
2017-10-07T00:53:13.190Z,77.17
2017-10-07T00:54:23.261Z,77.17
2017-10-07T00:55:33.277Z,76.88
2017-10-07T00:56:43.622Z,77.08
2017-10-07T00:57:53.645Z,77.08
2017-10-07T00:59:03.994Z,76.88
2017-10-07T01:00:14.399Z,76.88
2017-10-07T01:01:24.732Z,76.98
2017-10-07T01:02:34.429Z,77.17
2017-10-07T01:03:44.767Z,77.17
2017-10-07T01:04:55.101Z,76.98
2017-10-07T01:06:05.476Z,77.08
2017-10-07T01:07:15.812Z,76.88
2017-10-07T01:08:25.858Z,77.08
2017-10-07T01:09:36.189Z,76.79
2017-10-07T01:10:46.535Z,77.01
2017-10-07T01:11:57.155Z,77.17
2017-10-07T01:13:07.175Z,77.08
2017-10-07T01:14:17.526Z,77.21
2017-10-07T01:15:27.553Z,77.4
2017-10-07T01:16:37.263Z,77.21
2017-10-07T01:17:47.298Z,77.4
2017-10-07T01:18:57.661Z,77.01
2017-10-07T01:20:07.994Z,77.11
2017-10-07T01:21:18.011Z,76.92
2017-10-07T01:22:28.024Z,77.3
2017-10-07T01:23:38.404Z,77.4
2017-10-07T01:24:48.746Z,77.69
2017-10-07T01:25:58.461Z,77.5
2017-10-07T01:27:08.807Z,77.4
2017-10-07T01:28:19.165Z,77.17
2017-10-07T01:29:29.490Z,77.17
2017-10-07T01:30:39.839Z,77.26
2017-10-07T01:31:49.930Z,77.36
2017-10-07T01:33:00.268Z,76.98
2017-10-07T01:34:10.612Z,77.08
2017-10-07T01:35:20.642Z,76.98
2017-10-07T01:36:31.008Z,76.98
2017-10-07T01:37:41.037Z,77.26
2017-10-07T01:38:51.378Z,77.17
2017-10-07T01:40:01.720Z,77.17
2017-10-07T01:41:12.107Z,77.08
2017-10-07T01:42:22.133Z,77.17
2017-10-07T01:43:32.159Z,77.26
2017-10-07T01:44:42.188Z,76.98
2017-10-07T01:45:52.508Z,76.98
2017-10-07T01:47:02.912Z,76.98
2017-10-07T01:48:12.922Z,77.26
2017-10-07T01:49:23.266Z,77.17
2017-10-07T01:50:33.596Z,77.08
2017-10-07T01:51:43.943Z,77.17
2017-10-07T01:52:54.320Z,77.26
2017-10-07T01:54:04.670Z,77.36
2017-10-07T01:55:15.022Z,77.26
2017-10-07T01:56:25.054Z,77.26
2017-10-07T01:57:35.394Z,77.45
2017-10-07T01:58:45.778Z,77.36
2017-10-07T01:59:56.109Z,77.55
2017-10-07T02:01:06.472Z,77.26
2017-10-07T02:02:16.484Z,77.74
2017-10-07T02:03:26.500Z,77.26
2017-10-07T02:04:36.881Z,77.36
2017-10-07T02:05:47.218Z,77.36
2017-10-07T02:06:57.564Z,77.45
2017-10-07T02:08:07.612Z,77.26
2017-10-07T02:09:17.955Z,77.26
2017-10-07T02:10:28.285Z,76.98
2017-10-07T02:11:38.647Z,77.17
2017-10-07T02:12:48.669Z,77.08
2017-10-07T02:13:59.050Z,77.17
2017-10-07T02:15:09.427Z,76.98
2017-10-07T02:16:19.446Z,77.08
2017-10-07T02:17:29.795Z,77.08
2017-10-07T02:18:39.810Z,77.26
2017-10-07T02:19:49.526Z,77.17
2017-10-07T02:20:59.871Z,77.26
2017-10-07T02:22:10.200Z,77.23
2017-10-07T02:23:20.528Z,77.17
2017-10-07T02:24:30.852Z,77.17
2017-10-07T02:25:41.197Z,77.26
2017-10-07T02:26:51.545Z,77.17
2017-10-07T02:28:01.562Z,77.32
2017-10-07T02:29:11.886Z,77.32
2017-10-07T02:30:22.239Z,77.26
2017-10-07T02:31:31.952Z,77.36
2017-10-07T02:32:42.288Z,77.55
2017-10-07T02:33:52.346Z,77.36
2017-10-07T02:35:02.052Z,77.17
2017-10-07T02:36:12.388Z,77.36
2017-10-07T02:37:22.730Z,77.26
2017-10-07T02:38:32.767Z,77.36
2017-10-07T02:39:43.157Z,77.36
2017-10-07T02:40:53.180Z,77.26
2017-10-07T02:42:03.211Z,77.32
2017-10-07T02:43:13.532Z,77.26
2017-10-07T02:44:23.867Z,77.32
2017-10-07T02:45:33.939Z,77.13
2017-10-07T02:46:43.954Z,77.13
2017-10-07T02:47:54.293Z,77.13
2017-10-07T02:49:04.635Z,77.13
2017-10-07T02:50:14.651Z,77.13
2017-10-07T02:51:24.983Z,77.13
2017-10-07T02:52:35.321Z,77.13
2017-10-07T02:53:45.345Z,77.13
2017-10-07T02:54:55.693Z,77.03
2017-10-07T02:56:05.744Z,77.13
2017-10-07T02:57:15.774Z,77.13
2017-10-07T02:58:26.112Z,77.32
2017-10-07T02:59:36.439Z,77.13
2017-10-07T03:00:46.452Z,77.13
2017-10-07T03:01:56.783Z,77.13
2017-10-07T03:33:38.190Z,73.41
2017-10-07T03:34:48.507Z,73.7
2017-10-07T03:35:58.518Z,74.84
2017-10-07T03:37:08.870Z,75.42
2017-10-07T03:38:19.192Z,75.89
2017-10-07T03:39:29.574Z,76.65
2017-10-07T03:40:39.600Z,77.45
2017-10-07T03:41:49.927Z,76.88
2017-10-07T03:43:00.260Z,77.26
2017-10-07T03:44:10.597Z,77.64
2017-10-07T03:45:20.977Z,77.64
2017-10-07T03:46:31.310Z,77.11
2017-10-07T03:47:41.328Z,77.3
2017-10-07T03:48:51.649Z,77.25
2017-10-07T03:50:01.671Z,77.25
2017-10-07T03:51:11.373Z,77.53
2017-10-07T03:52:21.392Z,77.15
2017-10-07T03:53:31.721Z,77.06
2017-10-07T03:54:41.752Z,76.9
2017-10-07T03:55:52.098Z,76.9
2017-10-07T03:57:02.162Z,77.09
2017-10-07T03:58:12.507Z,77.09
2017-10-07T03:59:22.840Z,77.09
2017-10-07T04:00:33.190Z,77.09
2017-10-07T04:01:43.212Z,77.13
2017-10-07T04:02:53.551Z,77.32
2017-10-07T04:04:03.900Z,77.13
2017-10-07T04:05:14.227Z,77.23
2017-10-07T04:06:24.255Z,77.32
2017-10-07T04:07:34.275Z,77.13
2017-10-07T04:08:44.602Z,77.13
2017-10-07T04:09:54.948Z,77.13
2017-10-07T04:11:05.278Z,77.13
2017-10-07T04:12:15.300Z,77.13
2017-10-07T04:13:25.322Z,77.13
2017-10-07T04:14:35.657Z,77.42
2017-10-07T04:15:45.999Z,77.51
2017-10-07T04:16:56.017Z,77.89
2017-10-07T04:18:06.337Z,77.8
2017-10-07T04:19:17.898Z,77.51
2017-10-07T04:20:28.308Z,77.61
2017-10-07T04:21:38.324Z,77.89
2017-10-07T04:22:48.024Z,77.61
2017-10-07T04:23:58.361Z,77.61
2017-10-07T04:25:08.043Z,77.8
2017-10-07T04:26:17.809Z,77.99
2017-10-07T04:27:28.142Z,77.61
2017-10-07T04:28:38.493Z,77.7
2017-10-07T04:29:48.533Z,77.7
2017-10-07T04:30:58.873Z,77.42
2017-10-07T04:32:09.276Z,77.13
2017-10-07T04:33:19.277Z,77.13
2017-10-07T04:34:29.612Z,77.42
2017-10-07T04:35:39.954Z,77.32
2017-10-07T04:36:50.280Z,77.32
2017-10-07T04:38:00.659Z,77.32
2017-10-07T04:39:10.363Z,77.32
2017-10-07T04:40:20.697Z,77.42
2017-10-07T04:41:31.067Z,77.32
2017-10-07T04:42:41.085Z,77.23
2017-10-07T04:43:51.110Z,77.23
2017-10-07T04:45:01.435Z,77.51
2017-10-07T04:46:11.439Z,77.55
2017-10-07T04:47:21.780Z,77.26
2017-10-07T04:48:31.795Z,77.36
2017-10-07T04:49:42.190Z,77.26
2017-10-07T04:50:52.207Z,77.45
2017-10-07T04:52:02.549Z,77.45
2017-10-07T04:53:12.252Z,77.26
2017-10-07T04:54:22.588Z,77.65
2017-10-07T04:55:32.607Z,77.55
2017-10-07T04:56:42.615Z,77.45
2017-10-07T04:57:52.641Z,77.26
2017-10-07T04:59:02.972Z,77.45
2017-10-07T05:00:13.310Z,77.36
2017-10-07T05:01:23.652Z,77.26
2017-10-07T05:02:34.013Z,77.45
2017-10-07T05:03:44.052Z,77.26
2017-10-07T05:04:54.387Z,77.55
2017-10-07T05:06:04.400Z,77.55
2017-10-07T05:07:14.735Z,77.55
2017-10-07T05:08:25.078Z,77.26
2017-10-07T05:09:35.430Z,77.45
2017-10-07T05:10:45.447Z,77.36
2017-10-07T05:11:55.778Z,77.65
2017-10-07T05:13:05.868Z,77.45
2017-10-07T05:14:16.219Z,77.26
2017-10-07T05:15:26.550Z,77.26
2017-10-07T05:16:36.925Z,77.36
2017-10-07T05:17:47.271Z,77.45
2017-10-07T05:18:57.645Z,77.36
2017-10-07T05:20:07.973Z,77.45
2017-10-07T05:21:17.665Z,77.36
2017-10-07T05:22:27.677Z,77.45
2017-10-07T05:23:38.025Z,77.21
2017-10-07T05:24:48.413Z,77.3
2017-10-07T05:25:58.752Z,77.4
2017-10-07T05:27:08.461Z,77.11
2017-10-07T05:28:18.798Z,77.11
2017-10-07T05:29:28.810Z,77.11
2017-10-07T05:30:39.145Z,76.92
2017-10-07T05:31:49.541Z,76.92
2017-10-07T05:32:59.875Z,76.92
2017-10-07T05:34:10.221Z,77.21
2017-10-07T05:35:20.546Z,77.21
2017-10-07T05:36:30.888Z,77.01
2017-10-07T05:37:41.247Z,77.3
2017-10-07T05:38:51.574Z,76.92
2017-10-07T05:40:01.590Z,77.11
2017-10-07T05:41:11.930Z,77.3
2017-10-07T05:42:22.314Z,77.25
2017-10-07T05:43:32.331Z,77.11
2017-10-07T05:44:42.349Z,77.34
2017-10-07T05:45:52.685Z,77.44
2017-10-07T05:47:03.017Z,77.15
2017-10-07T05:48:13.068Z,77.15
2017-10-07T05:49:23.396Z,77.25
2017-10-07T05:50:33.770Z,77.25
2017-10-07T05:51:44.128Z,77.53
2017-10-07T05:52:54.472Z,77.4
2017-10-07T05:54:04.554Z,77.72
2017-10-07T05:55:14.901Z,77.63
2017-10-07T05:56:25.263Z,77.4
2017-10-07T05:57:35.598Z,77.3
2017-10-07T05:58:45.941Z,77.69
2017-10-07T05:59:56.280Z,76.92
2017-10-07T06:01:07.324Z,76.82
2017-10-07T06:02:17.664Z,76.77
2017-10-07T06:03:27.997Z,76.39
2017-10-07T06:04:38.022Z,76.1
2017-10-07T06:05:48.100Z,76
2017-10-07T06:06:58.426Z,76
2017-10-07T06:08:08.776Z,76.2
2017-10-07T06:09:18.787Z,76.67
2017-10-07T06:10:29.151Z,76.48
2017-10-07T06:11:39.485Z,76.67
2017-10-07T06:12:49.228Z,76.67
2017-10-07T06:13:59.563Z,76.77
2017-10-07T06:15:09.899Z,76.77
2017-10-07T06:16:19.595Z,76.81
2017-10-07T06:17:29.972Z,76.86
2017-10-07T06:18:40.314Z,77
2017-10-07T06:19:50.342Z,77.15
2017-10-07T06:21:00.357Z,76.81
2017-10-07T06:22:10.396Z,76.77
2017-10-07T06:23:20.756Z,77.15
2017-10-07T06:24:31.083Z,76.96
2017-10-07T06:25:41.101Z,77.06
2017-10-07T06:26:51.441Z,76.42
2017-10-07T06:28:01.468Z,76.9
2017-10-07T06:29:11.574Z,76.52
2017-10-07T06:30:21.592Z,76.04
2017-10-07T06:31:31.947Z,76.33
2017-10-07T06:32:42.293Z,75.89
2017-10-07T06:33:52.632Z,75.7
2017-10-07T06:35:02.704Z,75.51
2017-10-07T06:36:13.051Z,75.41
2017-10-07T06:37:23.410Z,75.93
2017-10-07T06:38:33.745Z,75.73
2017-10-07T06:39:44.081Z,75.83
2017-10-07T06:40:54.483Z,75.73
2017-10-07T06:42:04.496Z,75.73
2017-10-07T06:43:14.846Z,75.64
2017-10-07T06:44:25.199Z,75.64
2017-10-07T06:45:34.919Z,75.93
2017-10-07T06:46:45.310Z,76.12
2017-10-07T06:47:55.685Z,76.31
2017-10-07T06:49:06.030Z,76.21
2017-10-07T06:50:16.368Z,76.69
2017-10-07T06:51:26.713Z,76.84
2017-10-07T06:52:37.106Z,76.94
2017-10-07T06:53:47.116Z,76.84
2017-10-07T06:54:57.453Z,77.23
2017-10-07T06:56:07.791Z,77.23
2017-10-07T06:57:18.126Z,77.23
2017-10-07T06:58:28.478Z,77.13
2017-10-07T06:59:38.818Z,77.13
2017-10-07T07:00:49.164Z,77.13
2017-10-07T07:01:59.199Z,75.79
2017-10-07T07:03:09.242Z,76.27
2017-10-07T07:04:19.589Z,76.12
2017-10-07T07:05:29.625Z,75.83
2017-10-07T07:06:39.650Z,76.02
2017-10-07T07:07:50.006Z,75.93
2017-10-07T07:09:00.335Z,76.12
2017-10-07T07:10:10.723Z,75.93
2017-10-07T07:11:21.069Z,75.87
2017-10-07T07:12:30.791Z,75.83
2017-10-07T07:13:40.815Z,76.21
2017-10-07T07:14:51.198Z,75.96
2017-10-07T07:16:01.588Z,75.96
2017-10-07T07:17:11.597Z,75.87
2017-10-07T07:18:22.589Z,75.96
2017-10-07T07:19:32.939Z,75.87
2017-10-07T07:20:42.969Z,75.77
2017-10-07T07:21:53.317Z,75.96
2017-10-07T07:23:03.342Z,76.06
2017-10-07T07:24:13.378Z,76.06
2017-10-07T07:25:23.710Z,75.87
2017-10-07T07:26:33.767Z,75.87
2017-10-07T07:27:44.163Z,75.77
2017-10-07T07:28:54.180Z,76.15
2017-10-07T07:30:04.207Z,75.96
2017-10-07T07:31:14.258Z,75.77
2017-10-07T07:32:23.983Z,75.96
2017-10-07T07:33:34.082Z,75.96
2017-10-07T07:34:44.420Z,76.15
2017-10-07T07:35:54.445Z,75.48
2017-10-07T07:37:04.787Z,75.68
2017-10-07T07:38:15.123Z,75.68
2017-10-07T07:39:25.186Z,75.58
2017-10-07T07:40:35.214Z,75.81
2017-10-07T07:41:45.550Z,75.71
2017-10-07T07:42:55.578Z,75.62
2017-10-07T07:44:05.925Z,75.62
2017-10-07T07:45:16.283Z,76
2017-10-07T07:46:26.613Z,75.9
2017-10-07T07:47:36.963Z,76.1
2017-10-07T07:48:47.311Z,75.71
2017-10-07T07:49:57.332Z,75.71
2017-10-07T07:51:07.668Z,75.81
2017-10-07T07:52:17.714Z,76
2017-10-07T07:53:28.063Z,76.1
2017-10-07T07:54:38.401Z,75.9
2017-10-07T07:55:48.755Z,75.46
2017-10-07T07:56:59.099Z,75.65
2017-10-07T07:58:09.443Z,75.56
2017-10-07T07:59:19.776Z,75.46
2017-10-07T08:00:29.804Z,75.95
2017-10-07T08:01:40.139Z,75.65
2017-10-07T08:02:50.532Z,75.37
2017-10-07T08:04:00.548Z,75.65
2017-10-07T08:05:10.568Z,75.56
2017-10-07T08:06:20.926Z,75.89
2017-10-07T08:07:31.294Z,75.6
2017-10-07T08:08:41.659Z,75.7
2017-10-07T08:09:51.986Z,75.7
2017-10-07T08:11:02.343Z,75.12
2017-10-07T08:12:12.696Z,75.12
2017-10-07T08:13:22.728Z,76.27
2017-10-07T08:14:33.108Z,75.79
2017-10-07T08:15:43.448Z,75.98
2017-10-07T08:16:53.796Z,75.6
2017-10-07T08:18:03.822Z,75.7
2017-10-07T08:19:14.187Z,75.25
2017-10-07T08:20:24.543Z,75.73
2017-10-07T08:21:34.561Z,75.21
2017-10-07T08:22:44.606Z,75.82
2017-10-07T08:23:54.633Z,75.15
2017-10-07T08:25:04.979Z,75.45
2017-10-07T08:26:14.705Z,75.25
2017-10-07T08:27:24.728Z,75.15
2017-10-07T08:28:35.055Z,75.73
2017-10-07T08:29:45.401Z,74.71
2017-10-07T08:30:55.112Z,74.71
2017-10-07T08:32:05.509Z,74.27
2017-10-07T08:33:15.533Z,73.69
2017-10-07T08:34:25.891Z,73.63
2017-10-07T08:35:36.256Z,73.92
2017-10-07T08:36:46.278Z,74.3
2017-10-07T08:37:56.665Z,74.11
2017-10-07T08:39:07.010Z,74.4
2017-10-07T08:40:17.348Z,74.3
2017-10-07T08:41:27.711Z,74.88
2017-10-07T08:42:38.064Z,74.79
2017-10-07T08:43:48.174Z,74.82
2017-10-07T08:44:58.558Z,75.37
2017-10-07T08:46:08.900Z,75.37
2017-10-07T08:47:19.257Z,74.79
2017-10-07T08:48:29.608Z,74.34
2017-10-07T08:49:39.630Z,74.63
2017-10-07T08:50:49.979Z,74.98
2017-10-07T08:52:00.007Z,74.73
2017-10-07T08:53:10.351Z,74.34
2017-10-07T08:54:20.387Z,73.99
2017-10-07T08:55:30.465Z,73.99
2017-10-07T08:56:40.828Z,73.9
2017-10-07T08:57:50.861Z,73.9
2017-10-07T08:59:01.198Z,73.71
2017-10-07T09:00:11.538Z,73.36
2017-10-07T09:01:21.562Z,73.94
2017-10-07T09:02:31.945Z,73.58
2017-10-07T09:03:42.292Z,73.16
2017-10-07T09:04:52.657Z,74.41
2017-10-07T09:06:02.997Z,74.96
2017-10-07T09:07:13.361Z,73.9
2017-10-07T09:08:23.710Z,74.03
2017-10-07T09:09:33.428Z,73.36
2017-10-07T09:10:43.468Z,73.39
2017-10-07T09:11:53.821Z,73.49
2017-10-07T09:13:03.912Z,73.88
2017-10-07T09:14:13.929Z,74.22
2017-10-07T09:15:24.293Z,73.94
2017-10-07T09:16:34.650Z,73.88
2017-10-07T09:17:44.999Z,73.88
2017-10-07T09:18:55.015Z,73.14
2017-10-07T09:20:05.068Z,74.01
2017-10-07T09:21:15.411Z,74.45
2017-10-07T09:22:25.757Z,74.26
2017-10-07T09:23:36.111Z,74.93
2017-10-07T09:24:46.474Z,74.9
2017-10-07T09:25:56.822Z,74.9
2017-10-07T09:27:07.174Z,74.71
2017-10-07T09:28:17.542Z,74.76
2017-10-07T09:29:27.568Z,74.13
2017-10-07T09:30:37.958Z,73.78
2017-10-07T09:31:48.326Z,73.01
2017-10-07T09:32:58.377Z,73.39
2017-10-07T09:34:08.744Z,72.66
2017-10-07T09:35:18.787Z,72.85
2017-10-07T09:36:29.148Z,73.05
2017-10-07T09:37:38.856Z,73.24
2017-10-07T09:38:49.207Z,73.57
2017-10-07T09:39:59.553Z,74.1
2017-10-07T09:41:09.904Z,74.16
2017-10-07T09:42:19.998Z,73.3
2017-10-07T09:43:30.042Z,73.72
2017-10-07T09:44:40.074Z,73.72
2017-10-07T09:45:50.434Z,74.84
2017-10-07T09:47:00.779Z,74.99
2017-10-07T09:48:10.832Z,73.84
2017-10-07T09:49:21.173Z,73.2
2017-10-07T09:50:31.519Z,73.82
2017-10-07T09:51:41.552Z,74.51
2017-10-07T09:52:51.898Z,74.99
2017-10-07T09:54:02.299Z,74.55
2017-10-07T09:55:12.638Z,74.99
2017-10-07T09:56:22.981Z,74.65
2017-10-07T09:57:33.039Z,75.76
2017-10-07T09:58:43.390Z,75.34
2017-10-07T09:59:53.457Z,75.63
2017-10-07T10:01:03.822Z,75.54
2017-10-07T10:02:14.185Z,76.11
2017-10-07T10:03:24.225Z,76.36
2017-10-07T10:04:34.570Z,74.67
2017-10-07T10:05:44.924Z,74.96
2017-10-07T10:06:55.273Z,74.86
2017-10-07T10:08:05.629Z,74.19
2017-10-07T10:09:15.976Z,73.61
2017-10-07T10:10:25.671Z,73.07
2017-10-07T10:11:36.081Z,73.3
2017-10-07T10:12:46.428Z,73.65
2017-10-07T10:13:56.779Z,73.55
2017-10-07T10:15:07.137Z,74.32
2017-10-07T10:16:17.493Z,74.13
2017-10-07T10:17:27.834Z,74.57
2017-10-07T10:18:37.555Z,74.8
2017-10-07T10:19:47.898Z,74.19
2017-10-07T10:20:57.928Z,74.32
2017-10-07T10:22:08.275Z,74.61
2017-10-07T10:23:18.609Z,74.9
2017-10-07T10:24:28.946Z,74.13
2017-10-07T10:25:39.267Z,73.68
2017-10-07T10:26:49.614Z,73.3
2017-10-07T10:27:59.646Z,73.01
2017-10-07T10:29:10.042Z,73.78
2017-10-07T10:30:20.388Z,73.97
2017-10-07T10:31:30.732Z,74.16
2017-10-07T10:32:41.071Z,74.36
2017-10-07T10:33:51.424Z,73.78
2017-10-07T10:35:01.846Z,74.16
2017-10-07T10:36:11.880Z,73.91
2017-10-07T10:37:22.237Z,73.53
2017-10-07T10:38:32.260Z,73.43
2017-10-07T10:39:41.978Z,73.91
2017-10-07T10:40:52.316Z,73.62
2017-10-07T10:42:02.661Z,73.82
2017-10-07T10:43:13.047Z,73.68
2017-10-07T10:44:23.400Z,73.82
2017-10-07T10:45:33.751Z,74.01
2017-10-07T10:46:44.137Z,74.01
2017-10-07T10:47:54.471Z,74.2
2017-10-07T10:49:04.513Z,73.43
2017-10-07T10:50:14.881Z,73.33
2017-10-07T10:51:25.232Z,73.18
2017-10-07T10:52:35.599Z,73.27
2017-10-07T10:53:45.940Z,72.89
2017-10-07T10:54:55.956Z,73.21
2017-10-07T10:56:05.663Z,72.54
2017-10-07T10:57:15.696Z,72.15
2017-10-07T10:58:26.113Z,71.8
2017-10-07T10:59:36.453Z,70.72
2017-10-07T11:00:46.524Z,70.81
2017-10-07T11:01:56.549Z,71.78
2017-10-07T11:03:06.902Z,72.52
2017-10-07T11:04:17.272Z,73.15
2017-10-07T11:05:27.613Z,72.77
2017-10-07T11:06:37.959Z,72.96
2017-10-07T11:07:48.295Z,71.74
2017-10-07T11:08:58.651Z,72.45
2017-10-07T11:10:09.058Z,72.52
2017-10-07T11:11:19.415Z,72.22
2017-10-07T11:12:29.795Z,73
2017-10-07T11:13:39.843Z,73.19
2017-10-07T11:14:50.211Z,73.19
2017-10-07T11:16:00.557Z,73.44
2017-10-07T11:17:10.904Z,74.02
2017-10-07T11:18:20.937Z,74.47
2017-10-07T11:19:31.276Z,74.47
2017-10-07T11:20:40.985Z,73.79
2017-10-07T11:21:51.056Z,72.77
2017-10-07T11:23:01.412Z,73
2017-10-07T11:24:11.753Z,73.48
2017-10-07T11:25:21.791Z,73.83
2017-10-07T11:26:32.136Z,74.52
2017-10-07T11:27:42.486Z,73.79
2017-10-07T11:28:52.826Z,73.89
2017-10-07T11:30:02.541Z,74.85
2017-10-07T11:31:12.910Z,75.74
2017-10-07T11:32:23.258Z,76.38
2017-10-07T11:33:33.648Z,76.53
2017-10-07T11:34:44.029Z,76.5
2017-10-07T11:35:54.055Z,76.21
2017-10-07T11:37:04.400Z,74.99
2017-10-07T11:38:14.746Z,73.78
2017-10-07T11:39:24.834Z,74.93
2017-10-07T11:40:35.191Z,75.28
2017-10-07T11:41:45.536Z,74.99
2017-10-07T11:42:55.546Z,74.41
2017-10-07T11:44:05.877Z,73.68
2017-10-07T11:45:15.903Z,74.26
2017-10-07T11:46:25.634Z,73.24
2017-10-07T11:47:36.000Z,73.18
2017-10-07T11:48:46.032Z,72.41
2017-10-07T11:49:56.398Z,73.27
2017-10-07T11:51:06.744Z,73.24
2017-10-07T11:52:17.090Z,73.43
2017-10-07T11:53:27.438Z,73.14
2017-10-07T11:54:37.785Z,73.53
2017-10-07T11:55:48.141Z,74.4
2017-10-07T11:56:58.469Z,75.03
2017-10-07T11:58:08.807Z,75.32
2017-10-07T11:59:18.849Z,74.71
2017-10-07T12:00:29.217Z,74.07
2017-10-07T12:01:39.596Z,73.14
2017-10-07T12:02:49.670Z,73.95
2017-10-07T12:04:00.020Z,73.91
2017-10-07T12:05:10.102Z,73.24
2017-10-07T12:06:20.445Z,72.95
2017-10-07T12:07:30.491Z,72.79
2017-10-07T12:08:40.885Z,72.06
2017-10-07T12:09:51.244Z,71.42
2017-10-07T12:11:01.587Z,71.06
2017-10-07T12:12:11.947Z,70.97
2017-10-07T12:13:22.287Z,71
2017-10-07T12:14:32.686Z,71.3
2017-10-07T12:15:43.024Z,71.68
2017-10-07T12:16:53.405Z,72.22
2017-10-07T12:18:03.751Z,71.74
2017-10-07T12:19:14.113Z,72.61
2017-10-07T12:20:24.518Z,73.73
2017-10-07T12:21:34.543Z,74.57
2017-10-07T12:22:44.900Z,74.91
2017-10-07T12:23:55.250Z,74.97
2017-10-07T12:25:04.963Z,75.71
2017-10-07T12:26:15.315Z,74.55
2017-10-07T12:27:25.375Z,74.78
2017-10-07T12:28:35.391Z,74.68
2017-10-07T12:29:45.429Z,74.65
2017-10-07T12:30:55.443Z,73.62
2017-10-07T12:32:05.792Z,73.05
2017-10-07T12:33:16.141Z,74.49
2017-10-07T12:34:25.862Z,74.45
2017-10-07T12:35:35.890Z,74.65
2017-10-07T12:36:46.234Z,74.51
2017-10-07T12:37:56.297Z,73.94
2017-10-07T12:39:06.033Z,73.14
2017-10-07T12:40:16.390Z,72.47
2017-10-07T12:41:26.103Z,72.21
2017-10-07T12:42:36.133Z,72.21
2017-10-07T12:43:46.525Z,72.69
2017-10-07T12:44:56.548Z,72.69
2017-10-07T12:46:06.583Z,72.89
2017-10-07T12:47:16.934Z,72.69
2017-10-07T12:48:27.288Z,72.79
2017-10-07T12:49:37.349Z,72.89
2017-10-07T12:50:47.375Z,73.57
2017-10-07T12:51:57.715Z,72.69
2017-10-07T12:53:08.069Z,72.89
2017-10-07T12:54:17.772Z,72.25
2017-10-07T12:55:28.117Z,71.7
2017-10-07T12:56:38.458Z,71.7
2017-10-07T12:57:48.811Z,71.8
2017-10-07T12:58:59.157Z,72.48
2017-10-07T13:00:09.187Z,71.8
2017-10-07T13:01:19.590Z,71.84
2017-10-07T13:02:29.954Z,71.84
2017-10-07T13:03:40.295Z,71.88
2017-10-07T13:04:50.323Z,71.97
2017-10-07T13:06:00.669Z,72.58
2017-10-07T13:07:10.696Z,73.73
2017-10-07T13:08:21.038Z,74.43
2017-10-07T13:09:31.387Z,74.88
2017-10-07T13:10:41.727Z,75.9
2017-10-07T13:11:52.079Z,75.71
2017-10-07T13:13:02.154Z,75.67
2017-10-07T13:14:12.536Z,75.57
2017-10-07T13:15:22.909Z,76.11
2017-10-07T13:16:33.250Z,76.01
2017-10-07T13:17:43.283Z,76.31
2017-10-07T13:18:53.675Z,76.17
2017-10-07T13:20:03.711Z,75.79
2017-10-07T13:21:13.740Z,75.59
2017-10-07T13:22:23.772Z,74.63
2017-10-07T13:23:33.800Z,74.29
2017-10-07T13:24:44.148Z,73.26
2017-10-07T13:25:54.488Z,73.07
2017-10-07T13:27:04.192Z,73.01
2017-10-07T13:28:14.209Z,72.91
2017-10-07T13:29:24.565Z,72.95
2017-10-07T13:30:34.981Z,72.75
2017-10-07T13:31:45.330Z,72.27
2017-10-07T13:32:55.368Z,72.95
2017-10-07T13:34:05.720Z,72.66
2017-10-07T13:35:15.743Z,72.41
2017-10-07T13:36:25.827Z,72.79
2017-10-07T13:37:36.202Z,73.18
2017-10-07T13:38:46.239Z,73.62
2017-10-07T13:39:56.256Z,74.16
2017-10-07T13:41:06.308Z,74.8
2017-10-07T13:42:16.673Z,75.48
2017-10-07T13:43:27.024Z,74.57
2017-10-07T13:44:37.377Z,74.13
2017-10-07T13:45:47.715Z,74.03
2017-10-07T13:46:59.173Z,73.84
2017-10-07T13:48:09.511Z,73.84
2017-10-07T13:49:19.849Z,73.74
2017-10-07T13:50:29.876Z,74.32
2017-10-07T13:51:40.222Z,74.03
2017-10-07T13:52:50.619Z,74.51
2017-10-07T13:54:00.958Z,74.32
2017-10-07T13:55:11.332Z,73.74
2017-10-07T13:56:21.674Z,74.32
2017-10-07T13:57:31.391Z,74.99
2017-10-07T13:58:41.443Z,75.34
2017-10-07T13:59:51.800Z,75.49
2017-10-07T14:01:01.826Z,75.88
2017-10-07T14:02:12.205Z,75.98
2017-10-07T14:03:22.552Z,75.88
2017-10-07T14:04:32.946Z,75.69
2017-10-07T14:05:42.996Z,75.4
2017-10-07T14:06:53.043Z,75.49
2017-10-07T14:08:04.524Z,75.37
2017-10-07T14:09:14.556Z,75.46
2017-10-07T14:10:24.928Z,75.37
2017-10-07T14:11:34.948Z,75.37
2017-10-07T14:12:45.308Z,75.81
2017-10-07T14:13:55.660Z,75.52
2017-10-07T14:15:06.030Z,75.81
2017-10-07T14:16:16.101Z,75.32
2017-10-07T14:17:26.140Z,75.32
2017-10-07T14:18:36.182Z,75.32
2017-10-07T14:19:46.257Z,75.38
2017-10-07T14:20:56.601Z,75.48
2017-10-07T14:22:06.688Z,75.38
2017-10-07T14:23:17.792Z,75.52
2017-10-07T14:24:27.818Z,75.62
2017-10-07T14:25:38.183Z,74.75
2017-10-07T14:26:48.553Z,74.65
2017-10-07T14:27:58.967Z,74.85
2017-10-07T14:29:09.301Z,74.65
2017-10-07T14:30:19.647Z,74.65
2017-10-07T14:31:29.668Z,74.37
2017-10-07T14:32:40.010Z,74.75
2017-10-07T14:33:50.061Z,75.23
2017-10-07T14:35:00.416Z,75.32
2017-10-07T14:36:10.763Z,75.42
2017-10-07T14:37:20.792Z,75.87
2017-10-07T14:38:31.115Z,75.87
2017-10-07T14:39:41.189Z,75.48
2017-10-07T14:40:51.556Z,75.87
2017-10-07T14:42:01.908Z,75.77
2017-10-07T14:43:12.270Z,76.12
2017-10-07T14:44:22.321Z,75.92
2017-10-07T14:45:32.658Z,75.92
2017-10-07T14:46:43.004Z,76.02
2017-10-07T14:47:53.027Z,75.82
2017-10-07T14:49:03.390Z,75.25
2017-10-07T14:50:13.733Z,75.48
2017-10-07T14:51:24.134Z,75.29
2017-10-07T14:52:34.152Z,74.9
2017-10-07T14:53:44.482Z,74.85
2017-10-07T14:54:54.837Z,74.85
2017-10-07T14:56:05.201Z,74.75
2017-10-07T14:57:15.586Z,74.75
2017-10-07T14:58:25.916Z,74.65
2017-10-07T14:59:36.244Z,74.37
2017-10-07T15:00:46.596Z,74.55
2017-10-07T15:01:56.627Z,74.65
2017-10-07T15:03:06.966Z,74.85
2017-10-07T15:04:17.326Z,75.23
2017-10-07T15:05:27.681Z,75.38
2017-10-07T15:06:38.041Z,75.29
2017-10-07T15:07:48.081Z,75.38
2017-10-07T15:08:58.484Z,75.1
2017-10-07T15:10:08.865Z,75.48
2017-10-07T15:11:18.886Z,75.48
2017-10-07T15:12:28.949Z,75.87
2017-10-07T15:13:39.285Z,76.31
2017-10-07T15:14:49.971Z,76.21
2017-10-07T15:16:00.394Z,76.02
2017-10-07T15:17:10.410Z,76.4
2017-10-07T15:18:20.754Z,76.46
2017-10-07T15:19:31.110Z,76.4
2017-10-07T15:20:41.447Z,76.46
2017-10-07T15:21:51.484Z,76.07
2017-10-07T15:23:02.032Z,76.46
2017-10-07T15:24:12.388Z,76.46
2017-10-07T15:25:22.707Z,76.07
2017-10-07T15:26:33.122Z,75.98
2017-10-07T15:27:43.177Z,75.7
2017-10-07T15:28:53.510Z,75.89
2017-10-07T15:30:03.537Z,76.07
2017-10-07T15:31:13.903Z,75.79
2017-10-07T15:32:24.341Z,75.98
2017-10-07T15:33:34.748Z,75.98
2017-10-07T15:34:44.798Z,75.79
2017-10-07T15:35:55.165Z,75.79
2017-10-07T15:37:04.888Z,75.6
2017-10-07T15:38:15.246Z,75.89